Time;durP1;ratioP1;P1;durP2;ratioP2;P2;SDS_P1;SDS_P2;PMS_P1;PMS_P2;Temp;Humidity;BMP_temperature;BMP_pressure;BME280_temperature;BME280_humidity;BME280_pressure;Samples;Min_cycle;Max_cycle;Signal;HPM_P1;HPM_P2
2022/07/19 00:01:17;;;;;;;1.98;1.52;;;;;;;;;;4858306;29;20136;-72
2022/07/19 00:03:43;;;;;;;2.10;2.00;;;;;;;;;;4857869;29;20081;-73
2022/07/19 00:06:09;;;;;;;2.67;2.08;;;;;;;;;;4857970;29;20073;-72
2022/07/19 00:08:34;;;;;;;4.82;3.83;;;;;;;;;;4857986;29;20046;-72
2022/07/19 00:11:00;;;;;;;6.97;6.45;;;;;;;;;;4858009;29;20057;-72
2022/07/19 00:13:26;;;;;;;9.52;8.73;;;;;;;;;;4857937;29;20148;-72
2022/07/19 00:15:52;;;;;;;13.65;11.52;;;;;;;;;;4857332;29;20065;-72
2022/07/19 00:18:18;;;;;;;14.68;13.55;;;;;;;;;;4858086;29;20407;-72
2022/07/19 00:20:44;;;;;;;14.93;13.60;;;;;;;;;;4858065;29;20057;-72
2022/07/19 00:23:10;;;;;;;14.80;12.98;;;;;;;;;;4857628;29;20120;-72
2022/07/19 00:25:36;;;;;;;17.92;12.38;;;;;;;;;;4857973;29;20530;-72
2022/07/19 00:28:02;;;;;;;14.48;11.95;;;;;;;;;;4857561;29;20534;-71
2022/07/19 00:30:28;;;;;;;11.10;10.20;;;;;;;;;;4857676;29;20060;-74
2022/07/19 00:32:54;;;;;;;14.25;9.55;;;;;;;;;;4857493;29;20414;-72
2022/07/19 00:35:19;;;;;;;8.40;7.68;;;;;;;;;;4857678;29;20067;-73
2022/07/19 00:37:45;;;;;;;10.70;8.30;;;;;;;;;;4857714;29;20037;-72
2022/07/19 00:40:12;;;;;;;7.50;6.10;;;;;;;;;;4841320;29;20050;-73
2022/07/19 00:42:38;;;;;;;4.97;4.45;;;;;;;;;;4841175;29;20041;-73
2022/07/19 00:45:05;;;;;;;4.05;3.75;;;;;;;;;;4857676;29;20484;-73
2022/07/19 00:47:31;;;;;;;2.65;2.45;;;;;;;;;;4856375;29;20164;-73
2022/07/19 00:49:56;;;;;;;3.70;2.60;;;;;;;;;;4857581;29;20128;-72
2022/07/19 00:52:23;;;;;;;4.90;2.10;;;;;;;;;;4857550;29;20056;-72
2022/07/19 00:54:49;;;;;;;5.13;2.00;;;;;;;;;;4857226;29;20088;-72
2022/07/19 00:57:15;;;;;;;1.77;1.70;;;;;;;;;;4857185;29;20045;-71
2022/07/19 00:59:43;;;;;;;3.30;1.77;;;;;;;;;;4857422;29;20041;-72
2022/07/19 01:02:10;;;;;;;4.40;2.08;;;;;;;;;;4840798;29;20136;-71
2022/07/19 01:04:36;;;;;;;2.05;1.95;;;;;;;;;;4840769;29;20098;-71
2022/07/19 01:07:02;;;;;;;1.85;1.65;;;;;;;;;;4857020;29;20041;-72
2022/07/19 01:09:27;;;;;;;2.42;1.83;;;;;;;;;;4857034;29;20091;-72
2022/07/19 01:11:53;;;;;;;2.38;1.83;;;;;;;;;;4857189;29;20053;-72
2022/07/19 01:14:19;;;;;;;2.72;1.58;;;;;;;;;;4857282;29;20049;-71
2022/07/19 01:16:45;;;;;;;1.80;1.70;;;;;;;;;;4842993;29;20053;-70
2022/07/19 01:19:13;;;;;;;1.95;1.85;;;;;;;;;;4859834;29;20125;-73
2022/07/19 01:21:39;;;;;;;1.80;1.50;;;;;;;;;;4866429;29;20066;-72
2022/07/19 01:24:05;;;;;;;1.55;1.45;;;;;;;;;;4865249;29;20081;-72
2022/07/19 01:26:31;;;;;;;2.75;2.53;;;;;;;;;;4862423;29;20076;-71
2022/07/19 01:28:56;;;;;;;3.38;1.80;;;;;;;;;;4861094;29;20085;-72
2022/07/19 01:31:22;;;;;;;4.05;1.80;;;;;;;;;;4861078;29;20531;-72
2022/07/19 01:33:48;;;;;;;2.47;2.22;;;;;;;;;;4860794;29;20132;-72
2022/07/19 01:36:14;;;;;;;1.90;1.80;;;;;;;;;;4844276;29;20462;-72
2022/07/19 01:38:40;;;;;;;2.03;1.90;;;;;;;;;;4860745;29;20053;-72
2022/07/19 01:41:06;;;;;;;4.32;1.80;;;;;;;;;;4860558;29;20636;-72
2022/07/19 01:43:32;;;;;;;4.03;2.00;;;;;;;;;;4860465;29;20056;-72
2022/07/19 01:45:57;;;;;;;3.38;1.60;;;;;;;;;;4860614;29;20048;-71
2022/07/19 01:48:23;;;;;;;2.17;1.95;;;;;;;;;;4860434;29;20057;-71
2022/07/19 01:50:49;;;;;;;3.13;1.60;;;;;;;;;;4860623;29;20048;-72
2022/07/19 01:53:15;;;;;;;1.90;1.80;;;;;;;;;;4860328;29;20042;-72
2022/07/19 01:55:41;;;;;;;1.90;1.80;;;;;;;;;;4860443;29;20176;-70
2022/07/19 01:58:07;;;;;;;1.88;1.77;;;;;;;;;;4859944;29;20053;-71
2022/07/19 02:00:33;;;;;;;2.65;1.80;;;;;;;;;;4860320;29;20053;-71
2022/07/19 02:02:59;;;;;;;2.47;1.75;;;;;;;;;;4860010;29;20541;-71
2022/07/19 02:05:25;;;;;;;2.20;1.80;;;;;;;;;;4860399;29;20056;-72
2022/07/19 02:07:50;;;;;;;2.97;1.50;;;;;;;;;;4860095;29;20073;-70
2022/07/19 02:10:17;;;;;;;5.65;2.17;;;;;;;;;;4860178;29;20138;-71
2022/07/19 02:12:42;;;;;;;1.98;1.80;;;;;;;;;;4843472;29;20045;-72
2022/07/19 02:15:09;;;;;;;1.80;1.38;;;;;;;;;;4859873;29;20433;-72
2022/07/19 02:17:34;;;;;;;3.20;1.50;;;;;;;;;;4843563;29;20037;-72
2022/07/19 02:20:00;;;;;;;3.35;1.73;;;;;;;;;;4860048;29;20049;-71
2022/07/19 02:22:26;;;;;;;2.25;2.08;;;;;;;;;;4860032;29;20060;-74
2022/07/19 02:24:52;;;;;;;2.35;2.00;;;;;;;;;;4859913;29;20057;-72
2022/07/19 02:27:19;;;;;;;1.70;1.60;;;;;;;;;;4843223;29;20483;-72
2022/07/19 02:29:45;;;;;;;3.60;1.60;;;;;;;;;;4843560;29;20468;-71
2022/07/19 02:32:11;;;;;;;4.82;1.80;;;;;;;;;;4859614;29;20059;-72
2022/07/19 02:34:37;;;;;;;1.77;1.67;;;;;;;;;;4859699;29;20513;-72
2022/07/19 02:37:03;;;;;;;1.75;1.65;;;;;;;;;;4859657;29;20098;-72
2022/07/19 02:39:29;;;;;;;1.20;1.20;;;;;;;;;;4859805;29;20518;-72
2022/07/19 02:41:54;;;;;;;2.72;1.40;;;;;;;;;;4861887;29;20522;-71
2022/07/19 02:44:20;;;;;;;5.88;1.70;;;;;;;;;;4846577;29;20422;-71
2022/07/19 02:46:46;;;;;;;1.58;1.48;;;;;;;;;;4863164;29;20049;-72
2022/07/19 02:49:12;;;;;;;1.98;1.27;;;;;;;;;;4845749;29;20053;-71
2022/07/19 02:51:38;;;;;;;2.17;1.35;;;;;;;;;;4830315;29;20049;-71
2022/07/19 02:54:04;;;;;;;4.10;1.40;;;;;;;;;;4863766;29;20042;-72
2022/07/19 02:56:30;;;;;;;2.47;1.50;;;;;;;;;;4844999;29;20053;-72
2022/07/19 02:58:55;;;;;;;2.08;1.30;;;;;;;;;;4861760;29;20045;-70
2022/07/19 03:01:21;;;;;;;2.53;1.70;;;;;;;;;;4862167;29;20045;-73
2022/07/19 03:03:48;;;;;;;1.33;1.23;;;;;;;;;;4862200;29;20049;-72
2022/07/19 03:06:14;;;;;;;2.45;1.40;;;;;;;;;;4860866;29;20037;-72
2022/07/19 03:08:40;;;;;;;1.10;1.10;;;;;;;;;;4861839;29;20124;-72
2022/07/19 03:11:06;;;;;;;1.10;1.10;;;;;;;;;;4861628;29;20037;-72
2022/07/19 03:13:32;;;;;;;2.17;1.60;;;;;;;;;;4861715;29;20526;-72
2022/07/19 03:15:58;;;;;;;1.48;1.38;;;;;;;;;;4861326;29;20068;-73
2022/07/19 03:18:24;;;;;;;1.52;1.08;;;;;;;;;;4860612;29;20056;-72
2022/07/19 03:20:49;;;;;;;2.83;1.40;;;;;;;;;;4861374;29;20517;-73
2022/07/19 03:23:15;;;;;;;2.72;1.70;;;;;;;;;;4861557;29;20474;-73
2022/07/19 03:25:41;;;;;;;1.40;1.40;;;;;;;;;;4861445;29;20519;-72
2022/07/19 03:28:07;;;;;;;1.35;1.35;;;;;;;;;;4828891;29;20042;-74
2022/07/19 03:30:33;;;;;;;1.50;1.40;;;;;;;;;;4861901;29;20104;-72
2022/07/19 03:32:59;;;;;;;3.08;1.52;;;;;;;;;;4861600;29;20053;-73
2022/07/19 03:35:24;;;;;;;1.58;1.45;;;;;;;;;;4862542;29;20049;-72
2022/07/19 03:37:50;;;;;;;1.42;1.42;;;;;;;;;;4863076;29;20090;-73
2022/07/19 03:40:16;;;;;;;3.75;1.42;;;;;;;;;;4860915;29;20041;-73
2022/07/19 03:42:42;;;;;;;1.40;1.40;;;;;;;;;;4859410;29;20090;-73
2022/07/19 03:45:08;;;;;;;1.85;1.48;;;;;;;;;;4858904;29;20085;-73
2022/07/19 03:47:34;;;;;;;1.27;1.20;;;;;;;;;;4858882;29;20042;-72
2022/07/19 03:50:00;;;;;;;1.70;1.40;;;;;;;;;;4858430;29;20041;-72
2022/07/19 03:52:26;;;;;;;5.72;2.33;;;;;;;;;;4858899;29;20547;-73
2022/07/19 03:54:52;;;;;;;2.67;1.60;;;;;;;;;;4858290;29;20061;-72
2022/07/19 03:57:18;;;;;;;1.55;1.45;;;;;;;;;;4858145;29;20514;-72
2022/07/19 03:59:44;;;;;;;2.13;1.70;;;;;;;;;;4858319;29;20045;-72
2022/07/19 04:02:10;;;;;;;1.98;1.80;;;;;;;;;;4858314;29;20136;-73
2022/07/19 04:04:36;;;;;;;2.70;1.40;;;;;;;;;;4858047;29;20052;-73
2022/07/19 04:07:02;;;;;;;3.50;1.60;;;;;;;;;;4858140;29;20049;-73
2022/07/19 04:09:28;;;;;;;1.75;1.50;;;;;;;;;;4841751;29;20400;-71
2022/07/19 04:11:54;;;;;;;3.42;1.58;;;;;;;;;;4858252;29;20546;-75
2022/07/19 04:14:20;;;;;;;2.25;1.67;;;;;;;;;;4826312;29;20050;-73
2022/07/19 04:16:46;;;;;;;1.65;1.55;;;;;;;;;;4841544;29;20064;-73
2022/07/19 04:19:12;;;;;;;2.45;1.63;;;;;;;;;;4857751;29;20182;-72
2022/07/19 04:21:38;;;;;;;3.15;1.60;;;;;;;;;;4857802;29;20072;-72
2022/07/19 04:24:04;;;;;;;1.83;1.73;;;;;;;;;;4856454;29;20120;-72
2022/07/19 04:26:30;;;;;;;2.35;1.70;;;;;;;;;;4855580;29;20049;-73
2022/07/19 04:28:56;;;;;;;1.67;1.58;;;;;;;;;;4856756;29;20053;-72
2022/07/19 04:31:22;;;;;;;1.60;1.50;;;;;;;;;;4857745;29;20140;-73
2022/07/19 04:33:48;;;;;;;1.90;1.80;;;;;;;;;;4857609;29;20510;-72
2022/07/19 04:36:13;;;;;;;1.70;1.60;;;;;;;;;;4857784;29;20057;-72
2022/07/19 04:38:40;;;;;;;4.03;1.48;;;;;;;;;;4858077;29;20120;-72
2022/07/19 04:41:05;;;;;;;1.77;1.50;;;;;;;;;;4857801;29;20056;-73
2022/07/19 04:43:31;;;;;;;2.22;1.35;;;;;;;;;;4859100;29;20430;-73
2022/07/19 04:45:59;;;;;;;1.50;1.35;;;;;;;;;;4860417;29;20194;-72
2022/07/19 04:48:26;;;;;;;1.92;1.40;;;;;;;;;;4862083;29;20045;-72
2022/07/19 04:50:52;;;;;;;2.83;1.45;;;;;;;;;;4864410;29;20053;-73
2022/07/19 04:53:18;;;;;;;1.58;1.40;;;;;;;;;;4861923;29;20074;-73
2022/07/19 04:55:43;;;;;;;10.55;1.95;;;;;;;;;;4857909;29;20068;-72
2022/07/19 04:58:10;;;;;;;1.17;1.17;;;;;;;;;;4857026;29;20057;-73
2022/07/19 05:00:36;;;;;;;1.20;1.20;;;;;;;;;;4856278;29;20041;-72
2022/07/19 05:03:02;;;;;;;2.63;1.15;;;;;;;;;;4857260;29;20228;-74
2022/07/19 05:05:28;;;;;;;1.63;1.58;;;;;;;;;;4857489;29;20049;-76
2022/07/19 05:07:54;;;;;;;3.45;1.30;;;;;;;;;;4840779;29;20041;-76
2022/07/19 05:10:20;;;;;;;2.22;1.50;;;;;;;;;;4857824;29;20525;-76
2022/07/19 05:12:46;;;;;;;2.45;1.17;;;;;;;;;;4828632;29;20472;-76
2022/07/19 05:15:12;;;;;;;2.28;1.30;;;;;;;;;;4858266;29;20156;-76
2022/07/19 05:17:38;;;;;;;1.90;1.15;;;;;;;;;;4857405;29;20045;-76
2022/07/19 05:20:05;;;;;;;1.00;1.00;;;;;;;;;;4856843;29;20126;-77
2022/07/19 05:22:31;;;;;;;1.70;1.23;;;;;;;;;;4857113;29;20045;-76
2022/07/19 05:24:56;;;;;;;1.33;1.20;;;;;;;;;;4857191;29;20073;-76
2022/07/19 05:27:22;;;;;;;1.20;1.15;;;;;;;;;;4825358;29;20842;-76
2022/07/19 05:29:49;;;;;;;1.17;1.17;;;;;;;;;;4825552;29;20529;-76
2022/07/19 05:32:15;;;;;;;1.50;1.40;;;;;;;;;;4857035;29;20151;-77
2022/07/19 05:34:41;;;;;;;1.00;0.98;;;;;;;;;;4856972;29;20046;-76
2022/07/19 05:37:07;;;;;;;1.30;1.10;;;;;;;;;;4856957;29;20050;-76
2022/07/19 05:39:33;;;;;;;1.92;1.20;;;;;;;;;;4840444;29;20529;-76
2022/07/19 05:41:59;;;;;;;0.98;0.98;;;;;;;;;;4857137;29;20522;-76
2022/07/19 05:44:25;;;;;;;2.47;1.30;;;;;;;;;;4856733;29;20048;-76
2022/07/19 05:46:51;;;;;;;1.35;1.23;;;;;;;;;;4855833;29;20043;-72
2022/07/19 05:49:17;;;;;;;1.42;1.30;;;;;;;;;;4856509;29;20045;-73
2022/07/19 05:51:43;;;;;;;1.60;1.50;;;;;;;;;;4856870;29;20049;-74
2022/07/19 05:54:09;;;;;;;1.20;1.10;;;;;;;;;;4870892;29;20045;-74
2022/07/19 05:56:35;;;;;;;1.98;1.10;;;;;;;;;;4856786;29;20095;-73
2022/07/19 05:59:01;;;;;;;3.03;1.33;;;;;;;;;;4857042;29;20172;-73
2022/07/19 06:01:27;;;;;;;2.67;1.30;;;;;;;;;;4856946;29;20080;-74
2022/07/19 06:03:54;;;;;;;3.55;1.48;;;;;;;;;;4858926;29;20045;-72
2022/07/19 06:06:21;;;;;;;1.75;1.30;;;;;;;;;;4843613;29;20045;-74
2022/07/19 06:08:47;;;;;;;2.47;1.30;;;;;;;;;;4843873;29;20072;-74
2022/07/19 06:11:13;;;;;;;2.88;0.95;;;;;;;;;;4843858;29;20530;-73
2022/07/19 06:13:39;;;;;;;2.10;1.05;;;;;;;;;;4874460;29;20041;-71
2022/07/19 06:16:05;;;;;;;1.13;1.13;;;;;;;;;;4843830;29;20049;-73
2022/07/19 06:18:34;;;;;;;3.47;1.40;;;;;;;;;;4858856;29;20053;-73
2022/07/19 06:21:01;;;;;;;2.35;1.10;;;;;;;;;;4843896;29;20038;-73
2022/07/19 06:23:26;;;;;;;1.30;1.17;;;;;;;;;;4859635;29;20053;-72
2022/07/19 06:25:52;;;;;;;1.00;1.00;;;;;;;;;;4843528;29;20057;-73
2022/07/19 06:28:19;;;;;;;1.10;1.00;;;;;;;;;;4859817;29;20060;-71
2022/07/19 06:30:45;;;;;;;1.77;1.13;;;;;;;;;;4860079;29;20545;-72
2022/07/19 06:33:10;;;;;;;2.75;1.40;;;;;;;;;;4859758;29;20054;-74
2022/07/19 06:35:36;;;;;;;7.25;1.75;;;;;;;;;;4859538;29;20058;-73
2022/07/19 06:38:02;;;;;;;1.98;1.13;;;;;;;;;;4843363;29;20049;-74
2022/07/19 06:40:28;;;;;;;1.17;1.10;;;;;;;;;;4842701;29;20154;-73
2022/07/19 06:42:54;;;;;;;1.00;1.00;;;;;;;;;;4859796;29;20136;-72
2022/07/19 06:45:20;;;;;;;2.33;1.23;;;;;;;;;;4859296;29;20052;-73
2022/07/19 06:47:46;;;;;;;1.20;1.20;;;;;;;;;;4859320;29;20049;-73
2022/07/19 06:50:13;;;;;;;4.53;1.10;;;;;;;;;;4859263;29;21190;-74
2022/07/19 06:52:39;;;;;;;3.53;1.17;;;;;;;;;;4859732;29;20056;-75
2022/07/19 06:55:05;;;;;;;1.23;0.90;;;;;;;;;;4873752;29;20057;-74
2022/07/19 06:57:31;;;;;;;1.95;1.00;;;;;;;;;;4859147;29;20057;-72
2022/07/19 06:59:56;;;;;;;1.00;0.88;;;;;;;;;;4859277;29;20425;-73
2022/07/19 07:02:22;;;;;;;1.10;1.10;;;;;;;;;;4859293;29;20140;-74
2022/07/19 07:04:49;;;;;;;0.95;0.95;;;;;;;;;;4859692;29;20526;-73
2022/07/19 07:07:14;;;;;;;1.30;0.80;;;;;;;;;;4860873;29;20061;-73
2022/07/19 07:09:41;;;;;;;4.35;1.48;;;;;;;;;;4859322;29;20076;-75
2022/07/19 07:12:08;;;;;;;1.85;1.08;;;;;;;;;;4859608;29;20041;-71
2022/07/19 07:14:34;;;;;;;1.88;0.73;;;;;;;;;;4856893;29;20056;-72
2022/07/19 07:17:00;;;;;;;1.33;1.23;;;;;;;;;;4859412;29;20037;-75
2022/07/19 07:19:26;;;;;;;2.05;1.17;;;;;;;;;;4856710;29;20049;-75
2022/07/19 07:21:52;;;;;;;1.13;1.13;;;;;;;;;;4859177;29;20037;-73
2022/07/19 07:24:18;;;;;;;3.35;1.17;;;;;;;;;;4858627;29;20144;-74
2022/07/19 07:26:44;;;;;;;1.20;1.10;;;;;;;;;;4859198;29;20121;-74
2022/07/19 07:29:11;;;;;;;0.80;0.80;;;;;;;;;;4842063;29;20109;-74
2022/07/19 07:31:36;;;;;;;3.50;0.98;;;;;;;;;;4859133;29;20136;-73
2022/07/19 07:34:03;;;;;;;2.08;1.20;;;;;;;;;;4842504;29;20049;-73
2022/07/19 07:36:29;;;;;;;1.48;0.77;;;;;;;;;;4858473;29;20045;-73
2022/07/19 07:38:55;;;;;;;2.40;0.90;;;;;;;;;;4873173;29;20064;-74
2022/07/19 07:41:21;;;;;;;1.50;1.35;;;;;;;;;;4858836;29;20037;-74
2022/07/19 07:43:46;;;;;;;0.93;0.90;;;;;;;;;;4857591;29;20042;-73
2022/07/19 07:46:13;;;;;;;2.78;1.52;;;;;;;;;;4858575;29;20496;-74
2022/07/19 07:48:39;;;;;;;0.90;0.85;;;;;;;;;;4858656;29;20057;-75
2022/07/19 07:51:05;;;;;;;1.52;1.00;;;;;;;;;;4858934;29;20136;-74
2022/07/19 07:53:31;;;;;;;1.17;1.00;;;;;;;;;;4858373;29;20045;-74
2022/07/19 07:55:57;;;;;;;1.70;1.00;;;;;;;;;;4858449;29;20165;-74
2022/07/19 07:58:23;;;;;;;2.05;1.13;;;;;;;;;;4858243;29;20444;-75
2022/07/19 08:00:49;;;;;;;0.93;0.93;;;;;;;;;;4858707;29;20076;-77
2022/07/19 08:03:16;;;;;;;2.67;1.30;;;;;;;;;;4858391;29;20076;-76
2022/07/19 08:05:47;;;;;;;1.05;0.90;;;;;;;;;;4857253;29;20045;-74
2022/07/19 08:08:13;;;;;;;1.40;0.98;;;;;;;;;;4858248;29;20258;-74
2022/07/19 08:10:39;;;;;;;1.95;1.02;;;;;;;;;;4858297;29;20041;-74
2022/07/19 08:13:05;;;;;;;3.42;1.17;;;;;;;;;;4858382;29;20399;-74
2022/07/19 08:15:31;;;;;;;1.25;1.17;;;;;;;;;;4857676;29;20091;-73
2022/07/19 08:17:57;;;;;;;2.28;1.02;;;;;;;;;;4858418;29;20052;-76
2022/07/19 08:20:23;;;;;;;0.85;0.82;;;;;;;;;;4857842;29;20589;-74
2022/07/19 08:22:49;;;;;;;1.17;0.95;;;;;;;;;;4858210;29;20049;-76
2022/07/19 08:25:16;;;;;;;1.00;0.90;;;;;;;;;;4857599;29;20549;-76
2022/07/19 08:27:43;;;;;;;3.33;1.10;;;;;;;;;;4841515;29;20605;-75
2022/07/19 08:30:09;;;;;;;3.17;1.00;;;;;;;;;;4858039;29;20144;-75
2022/07/19 08:32:35;;;;;;;3.67;0.80;;;;;;;;;;4841282;29;20037;-75
2022/07/19 08:35:00;;;;;;;1.55;0.80;;;;;;;;;;4857709;29;20064;-74
2022/07/19 08:37:27;;;;;;;1.05;0.90;;;;;;;;;;4857650;29;20457;-74
2022/07/19 08:39:53;;;;;;;0.70;0.70;;;;;;;;;;4841456;29;20045;-75
2022/07/19 08:42:19;;;;;;;1.67;1.00;;;;;;;;;;4857509;29;20569;-75
2022/07/19 08:44:45;;;;;;;3.88;1.10;;;;;;;;;;4857616;29;20498;-75
2022/07/19 08:47:11;;;;;;;3.95;0.93;;;;;;;;;;4857864;29;20134;-75
2022/07/19 08:49:37;;;;;;;1.73;0.85;;;;;;;;;;4840752;29;20073;-75
2022/07/19 08:52:04;;;;;;;1.02;0.88;;;;;;;;;;4857530;29;20132;-75
2022/07/19 08:54:30;;;;;;;1.67;1.17;;;;;;;;;;4857413;29;20053;-74
2022/07/19 08:59:40;;;;;;;1.05;0.73;;;;;;;;;;4862377;29;20061;-74
2022/07/19 09:02:06;;;;;;;1.30;0.98;;;;;;;;;;4857529;29;20037;-75
2022/07/19 09:04:32;;;;;;;1.23;1.23;;;;;;;;;;4840350;29;20045;-75
2022/07/19 09:06:58;;;;;;;2.28;1.50;;;;;;;;;;4871613;29;20075;-75
2022/07/19 09:09:25;;;;;;;1.00;0.90;;;;;;;;;;4840350;29;20057;-75
2022/07/19 09:11:52;;;;;;;5.30;0.98;;;;;;;;;;4840351;29;20525;-74
2022/07/19 09:14:19;;;;;;;1.70;1.08;;;;;;;;;;4840239;29;20524;-74
2022/07/19 09:16:48;;;;;;;2.35;1.00;;;;;;;;;;4855755;29;20233;-74
2022/07/19 09:19:14;;;;;;;2.08;0.80;;;;;;;;;;4856826;29;20044;-75
2022/07/19 09:21:50;;;;;;;3.42;0.88;;;;;;;;;;4856815;29;20102;-74
2022/07/19 09:24:16;;;;;;;1.08;0.55;;;;;;;;;;4857203;29;20050;-73
2022/07/19 09:26:53;;;;;;;3.25;1.20;;;;;;;;;;4856704;29;20065;-74
2022/07/19 09:29:19;;;;;;;4.47;0.90;;;;;;;;;;4870781;29;20056;-74
2022/07/19 09:31:58;;;;;;;1.00;1.00;;;;;;;;;;4870992;29;20050;-74
2022/07/19 09:34:31;;;;;;;1.05;0.68;;;;;;;;;;4857276;29;20045;-74
2022/07/19 09:37:11;;;;;;;0.63;0.63;;;;;;;;;;4873638;29;20057;-75
2022/07/19 09:39:41;;;;;;;1.15;1.05;;;;;;;;;;4860914;29;20049;-73
2022/07/19 09:42:10;;;;;;;2.30;1.08;;;;;;;;;;4859893;29;20049;-75
2022/07/19 09:44:36;;;;;;;0.90;0.90;;;;;;;;;;4860525;29;20053;-75
2022/07/19 09:47:02;;;;;;;1.70;0.93;;;;;;;;;;4875197;29;20140;-75
2022/07/19 09:49:28;;;;;;;0.80;0.80;;;;;;;;;;4860707;29;20632;-76
2022/07/19 09:51:54;;;;;;;0.68;0.68;;;;;;;;;;4861161;29;20049;-75
2022/07/19 09:54:21;;;;;;;0.73;0.73;;;;;;;;;;4860576;29;20578;-75
2022/07/19 09:56:47;;;;;;;2.80;1.20;;;;;;;;;;4845070;29;20060;-76
2022/07/19 09:59:13;;;;;;;2.08;0.95;;;;;;;;;;4845147;29;20045;-75
2022/07/19 10:01:39;;;;;;;0.95;0.90;;;;;;;;;;4867288;29;20106;-74
2022/07/19 10:04:05;;;;;;;0.65;0.65;;;;;;;;;;4852878;29;20072;-76
2022/07/19 10:06:30;;;;;;;1.27;0.80;;;;;;;;;;4862826;29;20057;-74
2022/07/19 10:08:56;;;;;;;0.75;0.75;;;;;;;;;;4844357;29;20045;-73
2022/07/19 10:11:23;;;;;;;5.15;0.68;;;;;;;;;;4843594;29;20053;-76
2022/07/19 10:13:49;;;;;;;1.05;0.95;;;;;;;;;;4860345;29;20078;-76
2022/07/19 10:16:15;;;;;;;1.00;1.00;;;;;;;;;;4860019;29;20430;-76
2022/07/19 10:18:46;;;;;;;3.63;0.90;;;;;;;;;;4843507;29;20049;-76
2022/07/19 10:21:12;;;;;;;0.65;0.65;;;;;;;;;;4858834;29;20081;-75
2022/07/19 10:23:38;;;;;;;2.35;1.27;;;;;;;;;;4859938;29;20506;-73
2022/07/19 10:26:04;;;;;;;0.80;0.80;;;;;;;;;;4860169;29;20045;-74
2022/07/19 10:28:32;;;;;;;1.70;0.90;;;;;;;;;;4858756;29;20049;-75
2022/07/19 10:30:58;;;;;;;1.30;1.20;;;;;;;;;;4858741;29;20149;-74
2022/07/19 10:33:27;;;;;;;2.78;1.20;;;;;;;;;;4843308;29;20052;-74
2022/07/19 10:35:54;;;;;;;1.20;1.17;;;;;;;;;;4859796;29;20525;-75
2022/07/19 10:38:19;;;;;;;0.88;0.88;;;;;;;;;;4859945;29;20137;-75
2022/07/19 10:40:45;;;;;;;5.05;0.98;;;;;;;;;;4843054;29;20077;-75
2022/07/19 10:43:12;;;;;;;0.90;0.90;;;;;;;;;;4843260;29;20041;-75
2022/07/19 10:45:39;;;;;;;1.02;0.90;;;;;;;;;;4859330;29;20522;-75
2022/07/19 10:48:06;;;;;;;0.85;0.82;;;;;;;;;;4843166;29;20426;-74
2022/07/19 10:50:41;;;;;;;1.20;0.85;;;;;;;;;;4879077;29;20056;-74
2022/07/19 10:53:07;;;;;;;1.75;1.00;;;;;;;;;;4862824;29;20053;-74
2022/07/19 10:55:34;;;;;;;0.88;0.88;;;;;;;;;;4842841;29;20147;-75
2022/07/19 10:58:07;;;;;;;1.73;0.93;;;;;;;;;;4843024;29;20085;-73
2022/07/19 11:00:42;;;;;;;1.10;1.10;;;;;;;;;;4873478;29;20053;-75
2022/07/19 11:03:21;;;;;;;3.70;1.10;;;;;;;;;;4828010;29;20231;-75
2022/07/19 11:05:47;;;;;;;4.15;1.40;;;;;;;;;;4859231;29;20126;-72
2022/07/19 11:08:13;;;;;;;0.80;0.80;;;;;;;;;;4859637;29;20565;-75
2022/07/19 11:10:39;;;;;;;0.85;0.85;;;;;;;;;;4842422;29;20148;-74
2022/07/19 11:13:05;;;;;;;0.88;0.88;;;;;;;;;;4859562;29;20049;-75
2022/07/19 11:15:31;;;;;;;1.70;1.33;;;;;;;;;;4842354;29;20057;-73
2022/07/19 11:18:01;;;;;;;2.00;1.80;;;;;;;;;;4859411;29;20049;-74
2022/07/19 11:20:31;;;;;;;1.35;1.25;;;;;;;;;;4859061;29;20045;-75
2022/07/19 11:22:57;;;;;;;0.90;0.90;;;;;;;;;;4859353;29;20051;-74
2022/07/19 11:25:32;;;;;;;1.20;1.02;;;;;;;;;;4858990;29;20073;-75
2022/07/19 11:27:59;;;;;;;2.35;1.00;;;;;;;;;;4859349;29;20052;-75
2022/07/19 11:30:25;;;;;;;1.05;1.05;;;;;;;;;;4858709;29;20136;-75
2022/07/19 11:32:56;;;;;;;1.30;1.20;;;;;;;;;;4842401;29;20530;-73
2022/07/19 11:35:22;;;;;;;3.50;1.40;;;;;;;;;;4858828;29;20068;-74
2022/07/19 11:37:48;;;;;;;2.55;1.35;;;;;;;;;;4858740;29;20041;-75
2022/07/19 11:40:14;;;;;;;1.45;1.30;;;;;;;;;;4842083;29;20072;-75
2022/07/19 11:42:41;;;;;;;1.35;1.10;;;;;;;;;;4858811;29;20041;-75
2022/07/19 11:45:09;;;;;;;1.48;1.38;;;;;;;;;;4858831;29;20050;-75
2022/07/19 11:47:35;;;;;;;4.13;0.98;;;;;;;;;;4859147;29;20522;-74
2022/07/19 11:50:05;;;;;;;5.25;1.00;;;;;;;;;;4842099;29;20060;-75
2022/07/19 11:52:40;;;;;;;1.00;1.00;;;;;;;;;;4873227;29;20554;-75
2022/07/19 11:55:07;;;;;;;0.88;0.88;;;;;;;;;;4858544;29;20148;-74
2022/07/19 11:57:33;;;;;;;3.50;1.20;;;;;;;;;;4858144;29;20526;-75
2022/07/19 11:59:58;;;;;;;3.17;1.45;;;;;;;;;;4856612;29;20156;-75
2022/07/19 12:02:24;;;;;;;1.58;0.98;;;;;;;;;;4858676;29;20045;-74
2022/07/19 12:04:50;;;;;;;1.15;1.13;;;;;;;;;;4858244;29;20100;-73
2022/07/19 12:07:17;;;;;;;1.20;1.10;;;;;;;;;;4857525;29;20102;-74
2022/07/19 12:09:43;;;;;;;2.10;1.20;;;;;;;;;;4858112;29;20541;-75
2022/07/19 12:12:15;;;;;;;7.93;1.00;;;;;;;;;;4842376;29;20053;-75
2022/07/19 12:14:41;;;;;;;0.90;0.90;;;;;;;;;;4841689;29;20506;-74
2022/07/19 12:17:10;;;;;;;1.00;1.00;;;;;;;;;;4872731;29;20057;-73
2022/07/19 12:19:36;;;;;;;1.25;1.17;;;;;;;;;;4857842;29;20045;-73
2022/07/19 12:22:02;;;;;;;3.20;1.25;;;;;;;;;;4841692;29;20057;-74
2022/07/19 12:24:31;;;;;;;0.77;0.77;;;;;;;;;;4841296;29;20105;-75
2022/07/19 12:27:00;;;;;;;1.00;1.00;;;;;;;;;;4856622;29;20057;-74
2022/07/19 12:29:29;;;;;;;0.90;0.90;;;;;;;;;;4858275;29;20529;-75
2022/07/19 12:31:59;;;;;;;1.42;1.33;;;;;;;;;;4841548;29;20506;-75
2022/07/19 12:34:25;;;;;;;;;;;;;;;;;;4859346;29;20053;-74
2022/07/19 12:36:52;;;;;;;1.30;1.20;;;;;;;;;;4857639;29;19924;-74
2022/07/19 12:39:25;;;;;;;2.75;1.35;;;;;;;;;;4841878;29;20537;-75
2022/07/19 12:42:01;;;;;;;1.27;1.17;;;;;;;;;;4876207;29;20429;-74
2022/07/19 12:44:27;;;;;;;6.15;1.52;;;;;;;;;;4860226;29;20048;-75
2022/07/19 12:46:53;;;;;;;2.03;1.10;;;;;;;;;;4857880;29;20235;-74
2022/07/19 12:49:19;;;;;;;1.17;1.15;;;;;;;;;;4872099;29;20167;-75
2022/07/19 12:51:45;;;;;;;1.33;1.23;;;;;;;;;;4857595;29;20060;-75
2022/07/19 12:54:11;;;;;;;1.52;1.38;;;;;;;;;;4858504;29;20042;-73
2022/07/19 12:56:37;;;;;;;3.95;1.75;;;;;;;;;;4856948;29;20065;-74
2022/07/19 13:01:47;;;;;;;3.33;1.27;;;;;;;;;;4857564;29;20056;-75
2022/07/19 13:04:14;;;;;;;1.25;1.15;;;;;;;;;;4858100;29;20430;-75
2022/07/19 13:06:39;;;;;;;1.77;1.10;;;;;;;;;;4858660;29;20094;-74
2022/07/19 13:09:05;;;;;;;1.10;1.10;;;;;;;;;;4848634;29;20049;-74
2022/07/19 13:11:31;;;;;;;3.35;1.33;;;;;;;;;;4864615;29;20055;-75
2022/07/19 13:13:57;;;;;;;2.10;1.63;;;;;;;;;;4842189;29;20060;-74
2022/07/19 13:16:23;;;;;;;2.60;2.40;;;;;;;;;;4840970;29;20049;-75
2022/07/19 13:18:52;;;;;;;2.15;2.05;;;;;;;;;;4841037;29;20107;-77
2022/07/19 13:21:17;;;;;;;5.03;1.77;;;;;;;;;;4857564;29;20117;-75
2022/07/19 13:23:44;;;;;;;1.25;1.20;;;;;;;;;;4857277;29;20049;-75
2022/07/19 13:26:09;;;;;;;1.60;1.10;;;;;;;;;;4840882;29;20514;-74
2022/07/19 13:28:37;;;;;;;1.83;1.13;;;;;;;;;;4857157;29;20045;-73
2022/07/19 13:31:05;;;;;;;2.15;1.10;;;;;;;;;;4858533;29;20398;-74
2022/07/19 13:33:31;;;;;;;0.90;0.90;;;;;;;;;;4858047;29;20109;-74
2022/07/19 13:35:57;;;;;;;1.58;1.00;;;;;;;;;;4840816;29;20053;-74
2022/07/19 13:38:23;;;;;;;1.80;1.10;;;;;;;;;;4857353;29;20053;-75
2022/07/19 13:40:49;;;;;;;2.35;1.20;;;;;;;;;;4840538;29;20125;-75
2022/07/19 13:43:15;;;;;;;1.20;1.05;;;;;;;;;;4857469;29;20480;-74
2022/07/19 13:45:40;;;;;;;1.88;1.02;;;;;;;;;;4855908;29;20045;-74
2022/07/19 13:48:07;;;;;;;0.90;0.90;;;;;;;;;;4857305;29;20096;-73
2022/07/19 13:50:33;;;;;;;1.17;1.08;;;;;;;;;;4856992;29;20056;-75
2022/07/19 13:52:59;;;;;;;1.40;1.30;;;;;;;;;;4840853;29;20054;-73
2022/07/19 13:55:25;;;;;;;2.22;1.10;;;;;;;;;;4856150;29;20118;-73
2022/07/19 13:57:51;;;;;;;1.20;1.10;;;;;;;;;;4857214;29;20061;-75
2022/07/19 14:00:17;;;;;;;0.90;0.90;;;;;;;;;;4857295;29;20399;-74
2022/07/19 14:02:48;;;;;;;2.00;1.90;;;;;;;;;;4841586;29;20053;-75
2022/07/19 14:05:14;;;;;;;1.42;1.33;;;;;;;;;;4841142;29;20048;-74
2022/07/19 14:07:41;;;;;;;2.50;1.20;;;;;;;;;;4857004;29;20058;-75
2022/07/19 14:10:06;;;;;;;2.33;1.17;;;;;;;;;;4855886;29;20041;-75
2022/07/19 14:12:32;;;;;;;1.20;1.20;;;;;;;;;;4857374;29;20061;-74
2022/07/19 14:14:58;;;;;;;1.30;1.20;;;;;;;;;;4857287;29;20549;-75
2022/07/19 14:17:24;;;;;;;1.33;1.10;;;;;;;;;;4825873;29;20259;-73
2022/07/19 14:19:50;;;;;;;1.40;1.23;;;;;;;;;;4855749;29;20135;-73
2022/07/19 14:22:16;;;;;;;3.53;1.20;;;;;;;;;;4856914;29;20072;-74
2022/07/19 14:24:42;;;;;;;1.08;1.05;;;;;;;;;;4860002;29;20492;-74
2022/07/19 14:27:08;;;;;;;0.75;0.75;;;;;;;;;;4874548;29;20041;-75
2022/07/19 14:29:34;;;;;;;4.00;1.08;;;;;;;;;;4844250;29;20049;-76
2022/07/19 14:32:00;;;;;;;1.65;1.25;;;;;;;;;;4862470;29;20041;-75
2022/07/19 14:34:26;;;;;;;3.20;1.17;;;;;;;;;;4878244;29;20513;-74
2022/07/19 14:36:51;;;;;;;0.93;0.93;;;;;;;;;;4859781;29;20053;-73
2022/07/19 14:39:17;;;;;;;2.10;1.02;;;;;;;;;;4843661;29;20100;-73
2022/07/19 14:41:43;;;;;;;1.30;1.20;;;;;;;;;;4859643;29;20058;-74
2022/07/19 14:44:09;;;;;;;3.25;1.10;;;;;;;;;;4860022;29;20045;-74